Time;durP1;ratioP1;P1;durP2;ratioP2;P2;SDS_P1;SDS_P2;PMS_P1;PMS_P2;Temp;Humidity;BMP_temperature;BMP_pressure;BME280_temperature;BME280_humidity;BME280_pressure;Samples;Min_cycle;Max_cycle;Signal;HPM_P1;HPM_P2
2022/12/23 00:00:41;;;;;;;2.63;1.35;;;9.40;99.90;;;;;;5041870;28;20227;-85
2022/12/23 00:03:08;;;;;;;2.50;0.90;;;9.30;99.90;;;;;;5058629;28;20189;-85
2022/12/23 00:05:39;;;;;;;3.20;1.30;;;9.30;99.90;;;;;;5076457;28;20420;-86
2022/12/23 00:08:06;;;;;;;4.88;1.50;;;9.40;99.90;;;;;;5061876;28;20229;-84
2022/12/23 00:10:36;;;;;;;2.88;1.40;;;9.40;99.90;;;;;;5076941;28;20591;-84
2022/12/23 00:15:46;;;;;;;3.25;1.20;;;9.40;99.90;;;;;;5075080;28;20211;-85
2022/12/23 00:18:11;;;;;;;2.90;1.60;;;9.50;99.90;;;;;;5076132;28;20212;-86
2022/12/23 00:20:37;;;;;;;2.60;1.50;;;9.50;99.90;;;;;;5075760;28;20185;-86
2022/12/23 00:23:05;;;;;;;3.37;1.50;;;9.50;99.90;;;;;;5074427;28;20185;-85
2022/12/23 00:25:44;;;;;;;1.98;1.08;;;9.50;99.90;;;;;;5075508;28;20189;-84
2022/12/23 00:28:17;;;;;;;2.45;1.40;;;9.50;99.90;;;;;;5057488;28;20609;-85
2022/12/23 00:30:48;;;;;;;2.75;1.20;;;9.50;99.90;;;;;;5075391;28;20252;-85
2022/12/23 00:33:15;;;;;;;4.72;1.38;;;9.50;99.90;;;;;;5075828;28;20576;-85
2022/12/23 00:35:44;;;;;;;3.28;1.27;;;9.50;99.90;;;;;;5075459;28;20609;-85
2022/12/23 00:38:10;;;;;;;3.03;1.48;;;9.50;99.90;;;;;;5074436;28;20234;-86
2022/12/23 00:43:20;;;;;;;2.03;1.25;;;9.50;99.90;;;;;;5060209;28;20391;-85
2022/12/23 00:45:45;;;;;;;3.60;1.47;;;9.50;99.90;;;;;;5040304;28;20189;-85
2022/12/23 00:50:55;;;;;;;1.60;0.95;;;9.50;99.90;;;;;;5075011;28;20744;-85
2022/12/23 00:53:22;;;;;;;2.37;1.40;;;9.50;99.90;;;;;;5057357;28;20193;-85
2022/12/23 00:55:49;;;;;;;2.75;1.23;;;9.50;99.90;;;;;;5056939;28;20462;-85
2022/12/23 00:58:15;;;;;;;3.95;1.48;;;9.50;99.90;;;;;;5057535;28;20181;-85
2022/12/23 01:06:10;;;;;;;2.90;1.23;;;9.50;99.90;;;;;;5074696;28;20207;-85
2022/12/23 01:08:36;;;;;;;3.50;1.30;;;9.50;99.90;;;;;;5067545;28;20228;-85
2022/12/23 01:11:03;;;;;;;3.80;1.47;;;9.40;99.90;;;;;;5076729;28;20177;-85
2022/12/23 01:13:29;;;;;;;1.50;1.00;;;9.40;99.90;;;;;;5076658;28;20215;-85
2022/12/23 01:16:07;;;;;;;8.97;2.37;;;9.40;99.90;;;;;;5076456;28;20255;-85
2022/12/23 01:18:34;;;;;;;7.63;1.58;;;9.50;99.90;;;;;;5076307;28;20211;-84
2022/12/23 01:21:04;;;;;;;4.82;2.40;;;9.50;99.90;;;;;;5094432;28;20192;-85
2022/12/23 01:23:30;;;;;;;3.05;1.20;;;9.50;99.90;;;;;;5095099;28;20502;-86
2022/12/23 01:25:58;;;;;;;7.05;1.65;;;9.50;99.90;;;;;;5094635;28;20768;-85
2022/12/23 01:28:24;;;;;;;4.75;1.55;;;9.60;99.90;;;;;;5076217;28;20586;-85
2022/12/23 01:30:50;;;;;;;2.35;1.40;;;9.60;99.90;;;;;;5076319;28;20218;-85
2022/12/23 01:33:15;;;;;;;3.53;1.27;;;9.60;99.90;;;;;;5076708;28;20202;-84
2022/12/23 01:35:41;;;;;;;3.93;1.50;;;9.60;99.90;;;;;;5059219;28;20192;-89
2022/12/23 01:38:06;;;;;;;2.67;1.57;;;9.60;99.90;;;;;;5076758;28;20641;-86
2022/12/23 01:40:36;;;;;;;5.40;2.40;;;9.60;99.90;;;;;;5094702;28;20267;-85
2022/12/23 01:43:02;;;;;;;4.20;1.90;;;9.70;99.90;;;;;;5059998;28;20241;-85
2022/12/23 01:45:30;;;;;;;2.33;1.63;;;9.70;99.90;;;;;;5076740;28;20188;-85
2022/12/23 01:47:57;;;;;;;6.13;1.90;;;9.80;99.90;;;;;;5076392;28;20757;-85
2022/12/23 01:50:36;;;;;;;7.90;1.85;;;9.80;99.90;;;;;;5076676;28;20548;-84
2022/12/23 01:53:07;;;;;;;4.07;1.90;;;9.80;99.90;;;;;;5094426;28;20191;-83
2022/12/23 01:55:39;;;;;;;5.95;2.03;;;9.80;99.90;;;;;;5076550;28;20184;-83
2022/12/23 01:58:14;;;;;;;6.47;2.28;;;9.90;99.90;;;;;;5076390;28;20241;-84
2022/12/23 02:03:42;;;;;;;3.28;1.80;;;9.90;99.90;;;;;;5079677;28;20581;-84
2022/12/23 02:09:29;;;;;;;4.07;2.65;;;9.90;99.90;;;;;;5094039;28;20238;-84
2022/12/23 02:12:10;;;;;;;5.25;2.50;;;9.90;99.90;;;;;;5094284;28;20179;-84
2022/12/23 02:17:57;;;;;;;6.95;2.72;;;10.00;99.90;;;;;;5094141;28;20198;-84
2022/12/23 02:20:47;;;;;;;3.42;2.65;;;10.00;99.90;;;;;;5094390;28;20237;-85
2022/12/23 02:23:55;;;;;;;5.82;2.95;;;9.90;99.90;;;;;;5076444;28;20187;-84
2022/12/23 02:26:45;;;;;;;6.15;3.20;;;9.90;99.90;;;;;;5046717;28;20608;-84
2022/12/23 02:29:36;;;;;;;6.53;3.63;;;10.00;99.90;;;;;;5094469;28;20176;-85
2022/12/23 02:32:32;;;;;;;6.38;3.60;;;10.00;99.90;;;;;;5063782;28;20210;-84
2022/12/23 02:35:36;;;;;;;10.55;3.90;;;10.10;99.90;;;;;;5075426;28;20192;-85
2022/12/23 02:38:11;;;;;;;4.65;3.10;;;10.10;99.90;;;;;;5060866;28;20701;-85
2022/12/23 02:40:48;;;;;;;6.53;3.45;;;10.00;99.90;;;;;;5097093;28;20266;-85
2022/12/23 02:43:40;;;;;;;8.40;3.72;;;10.10;99.90;;;;;;5079132;28;20266;-85
2022/12/23 02:46:15;;;;;;;6.07;3.45;;;10.10;99.90;;;;;;5092381;28;20199;-84
2022/12/23 02:49:03;;;;;;;6.93;3.38;;;10.10;99.90;;;;;;5079344;28;20256;-85
2022/12/23 02:51:35;;;;;;;12.77;3.80;;;10.10;99.90;;;;;;5097364;28;20253;-85
2022/12/23 02:54:06;;;;;;;8.52;3.95;;;10.20;99.90;;;;;;5079448;28;20647;-85
2022/12/23 02:56:37;;;;;;;15.20;3.53;;;10.20;99.90;;;;;;5097384;28;20184;-85
2022/12/23 02:59:14;;;;;;;8.25;3.58;;;10.20;99.90;;;;;;5097530;28;20259;-85
2022/12/23 03:01:41;;;;;;;11.40;3.67;;;10.20;99.90;;;;;;5097463;28;20175;-86
2022/12/23 03:04:07;;;;;;;8.23;3.15;;;10.20;99.90;;;;;;5097404;28;20176;-85
2022/12/23 03:06:40;;;;;;;11.13;3.53;;;10.20;99.90;;;;;;5079169;28;20275;-86
2022/12/23 03:09:07;;;;;;;10.68;2.95;;;10.20;99.90;;;;;;5095705;28;21288;-85
2022/12/23 03:11:53;;;;;;;7.40;2.97;;;10.20;99.90;;;;;;5096294;28;20176;-85
2022/12/23 03:14:30;;;;;;;8.27;3.25;;;10.20;99.90;;;;;;5095689;28;20176;-86
2022/12/23 03:17:24;;;;;;;6.70;3.45;;;10.20;99.90;;;;;;5077743;28;20280;-84
2022/12/23 03:20:13;;;;;;;5.97;2.65;;;10.20;99.90;;;;;;5095798;28;20509;-85
2022/12/23 03:23:02;;;;;;;8.85;2.90;;;10.20;99.90;;;;;;5096212;28;20169;-85
2022/12/23 03:25:28;;;;;;;12.45;2.83;;;10.10;99.90;;;;;;5095398;28;20238;-85
2022/12/23 03:27:57;;;;;;;8.67;2.80;;;10.10;99.90;;;;;;5095055;28;20643;-84
2022/12/23 03:30:28;;;;;;;8.40;2.90;;;10.00;99.90;;;;;;5077373;28;20272;-85
2022/12/23 03:33:14;;;;;;;8.95;2.90;;;10.00;99.90;;;;;;5060902;28;20271;-85
2022/12/23 03:35:50;;;;;;;10.60;3.13;;;10.00;99.90;;;;;;5077213;28;20195;-86
2022/12/23 03:38:18;;;;;;;4.03;2.08;;;10.10;99.90;;;;;;5095437;28;20183;-85
2022/12/23 03:41:08;;;;;;;7.95;2.03;;;10.10;99.90;;;;;;5077207;28;20267;-86
2022/12/23 03:43:42;;;;;;;10.05;3.42;;;10.10;99.90;;;;;;5077194;28;20683;-87
2022/12/23 03:46:16;;;;;;;7.25;3.35;;;10.10;99.90;;;;;;5076940;28;20191;-85
2022/12/23 03:48:56;;;;;;;6.93;2.35;;;10.10;99.90;;;;;;5095431;28;20164;-86
2022/12/23 03:51:28;;;;;;;5.03;2.28;;;10.10;99.90;;;;;;5077101;28;20280;-85
2022/12/23 03:54:02;;;;;;;5.70;2.47;;;10.10;99.90;;;;;;5077066;28;20188;-86
2022/12/23 03:56:34;;;;;;;6.20;2.20;;;10.10;99.90;;;;;;5077023;28;20262;-85
2022/12/23 03:59:12;;;;;;;7.28;2.10;;;10.10;99.90;;;;;;5076921;28;20971;-86
2022/12/23 04:02:10;;;;;;;5.68;2.30;;;10.10;99.90;;;;;;5076765;28;20183;-85
2022/12/23 04:04:41;;;;;;;5.60;1.90;;;10.10;99.90;;;;;;5094898;28;20193;-85
2022/12/23 04:09:57;;;;;;;4.88;1.85;;;10.10;99.90;;;;;;5070788;28;21016;-87
2022/12/23 04:12:24;;;;;;;7.28;2.25;;;10.10;99.90;;;;;;5070244;28;20188;-86
2022/12/23 04:14:51;;;;;;;8.98;1.80;;;10.00;99.90;;;;;;5071007;28;20177;-88
2022/12/23 04:17:17;;;;;;;3.40;1.45;;;9.90;99.90;;;;;;5069971;28;20192;-86
2022/12/23 04:19:44;;;;;;;5.60;1.98;;;9.90;99.90;;;;;;5069939;28;20191;-86
2022/12/23 04:22:11;;;;;;;4.05;1.80;;;9.70;99.90;;;;;;5071158;28;20938;-87
2022/12/23 04:24:37;;;;;;;7.25;1.67;;;9.70;99.90;;;;;;5069980;28;20223;-86
2022/12/23 04:27:03;;;;;;;4.93;2.00;;;9.70;99.90;;;;;;5071044;28;20226;-86
2022/12/23 04:29:29;;;;;;;4.43;1.58;;;9.70;99.90;;;;;;5069485;28;20216;-86
2022/12/23 04:31:55;;;;;;;8.50;2.03;;;9.60;99.90;;;;;;5069255;28;20196;-87
2022/12/23 04:34:20;;;;;;;7.40;2.00;;;9.50;99.90;;;;;;5069665;28;20378;-86
2022/12/23 04:36:46;;;;;;;4.10;1.33;;;9.50;99.90;;;;;;5069813;28;20230;-86
2022/12/23 04:39:12;;;;;;;3.47;1.50;;;9.60;99.90;;;;;;5070502;28;20177;-86
2022/12/23 04:41:37;;;;;;;3.83;1.30;;;9.60;99.90;;;;;;5052903;28;20211;-86
2022/12/23 04:44:03;;;;;;;6.07;1.13;;;9.60;99.90;;;;;;5052639;28;20272;-87
2022/12/23 04:46:28;;;;;;;3.53;1.77;;;9.60;99.90;;;;;;5069458;28;20184;-86
2022/12/23 04:48:54;;;;;;;4.97;1.63;;;9.60;99.90;;;;;;5069205;28;20196;-87
2022/12/23 04:51:20;;;;;;;4.13;1.90;;;9.60;99.90;;;;;;5069716;28;20515;-88
2022/12/23 04:53:45;;;;;;;3.70;1.23;;;9.60;99.90;;;;;;5069390;28;20629;-86
2022/12/23 04:56:11;;;;;;;7.60;1.70;;;9.60;99.90;;;;;;5070341;28;20177;-86
2022/12/23 04:58:37;;;;;;;8.63;1.77;;;9.60;99.90;;;;;;5069155;28;20745;-86
2022/12/23 05:01:05;;;;;;;4.37;2.40;;;9.60;99.90;;;;;;5069161;28;20590;-86
2022/12/23 05:03:31;;;;;;;5.63;2.45;;;9.70;99.90;;;;;;5070443;28;20173;-87
2022/12/23 05:05:56;;;;;;;5.30;2.13;;;9.70;99.90;;;;;;5068992;28;20637;-87
2022/12/23 05:08:22;;;;;;;6.00;2.00;;;9.70;99.90;;;;;;5052130;28;20487;-86
2022/12/23 05:10:47;;;;;;;4.10;2.10;;;9.80;99.90;;;;;;5069369;28;20177;-84
2022/12/23 05:13:13;;;;;;;5.87;1.90;;;9.70;99.90;;;;;;5070785;28;20194;-84
2022/12/23 05:15:39;;;;;;;6.30;2.17;;;9.80;99.90;;;;;;5053721;28;20205;-83
2022/12/23 05:18:04;;;;;;;3.70;2.20;;;9.80;99.90;;;;;;5069580;28;20588;-84
2022/12/23 05:20:30;;;;;;;8.40;2.07;;;9.80;99.90;;;;;;5062155;28;20231;-84
2022/12/23 05:22:55;;;;;;;10.70;2.40;;;9.80;99.90;;;;;;5039804;28;20181;-85
2022/12/23 05:25:21;;;;;;;4.27;1.70;;;9.90;99.90;;;;;;5056986;28;20273;-84
2022/12/23 05:27:46;;;;;;;5.63;2.03;;;9.80;99.90;;;;;;5039523;28;20763;-84
2022/12/23 05:30:12;;;;;;;5.37;3.03;;;9.80;99.90;;;;;;5056231;28;20182;-84
2022/12/23 05:32:38;;;;;;;7.17;2.30;;;9.80;99.90;;;;;;5040007;28;20649;-84
2022/12/23 05:35:04;;;;;;;6.00;1.93;;;9.80;99.90;;;;;;5056238;28;20177;-84
2022/12/23 05:37:30;;;;;;;11.40;2.20;;;9.80;99.90;;;;;;5056635;28;20269;-84
2022/12/23 05:39:55;;;;;;;5.30;1.70;;;9.80;99.90;;;;;;5056184;28;20205;-86
2022/12/23 05:42:21;;;;;;;4.10;2.20;;;9.90;99.90;;;;;;5057553;28;20186;-84
2022/12/23 05:44:47;;;;;;;3.60;1.90;;;10.00;99.90;;;;;;5056400;28;20182;-84
2022/12/23 05:47:12;;;;;;;6.93;2.20;;;10.00;99.90;;;;;;5056191;28;20177;-84
2022/12/23 05:49:38;;;;;;;8.37;2.67;;;10.00;99.90;;;;;;5039290;28;20206;-84
2022/12/23 05:52:03;;;;;;;5.73;1.70;;;10.00;99.90;;;;;;5056217;28;20272;-84
2022/12/23 05:54:29;;;;;;;4.80;1.97;;;10.00;99.90;;;;;;5057372;28;20181;-84
2022/12/23 05:56:55;;;;;;;7.73;2.10;;;10.00;99.90;;;;;;5056078;28;20579;-85
2022/12/23 05:59:20;;;;;;;8.17;2.40;;;10.00;99.90;;;;;;5055876;28;20192;-84
2022/12/23 06:01:46;;;;;;;7.97;2.17;;;10.10;99.90;;;;;;5055746;28;20178;-84
2022/12/23 06:04:11;;;;;;;4.90;2.03;;;10.00;99.90;;;;;;5056673;28;20536;-84
2022/12/23 06:06:37;;;;;;;4.10;1.83;;;10.10;99.90;;;;;;5055646;28;20186;-84
2022/12/23 06:09:02;;;;;;;5.33;1.80;;;10.00;99.90;;;;;;5054826;28;20237;-85
2022/12/23 06:11:28;;;;;;;3.70;1.70;;;10.00;99.90;;;;;;5055899;28;20177;-84
2022/12/23 06:13:53;;;;;;;6.93;1.67;;;10.10;99.90;;;;;;5055713;28;20622;-83
2022/12/23 06:16:19;;;;;;;4.97;2.10;;;10.10;99.90;;;;;;5038496;28;20184;-83
2022/12/23 06:18:45;;;;;;;11.90;2.73;;;10.00;99.90;;;;;;5055974;28;20626;-83
2022/12/23 06:21:10;;;;;;;7.60;2.40;;;10.00;99.90;;;;;;5057205;28;20521;-83
2022/12/23 06:23:36;;;;;;;5.30;2.87;;;10.00;99.90;;;;;;5055991;28;20178;-83
2022/12/23 06:26:02;;;;;;;8.30;2.20;;;10.00;99.90;;;;;;5055212;28;20235;-84
2022/12/23 06:28:28;;;;;;;6.97;2.15;;;9.90;99.90;;;;;;5055177;28;20204;-83
2022/12/23 06:30:56;;;;;;;10.20;2.33;;;9.90;99.90;;;;;;5056105;28;20204;-84
2022/12/23 06:33:23;;;;;;;5.47;2.30;;;9.90;99.90;;;;;;5038185;28;20185;-83
2022/12/23 06:35:49;;;;;;;9.98;2.40;;;9.80;99.90;;;;;;5055942;28;20239;-84
2022/12/23 06:38:15;;;;;;;8.30;2.60;;;9.70;99.90;;;;;;5055264;28;20555;-83
2022/12/23 06:40:41;;;;;;;6.17;1.97;;;9.70;99.90;;;;;;5055802;28;20909;-83
2022/12/23 06:43:06;;;;;;;8.52;2.45;;;9.70;99.90;;;;;;5056142;28;20192;-84
2022/12/23 06:45:32;;;;;;;7.93;2.70;;;9.60;99.90;;;;;;5056097;28;20194;-84
2022/12/23 06:47:57;;;;;;;5.57;2.30;;;9.60;99.90;;;;;;5055240;28;20206;-84
2022/12/23 06:50:23;;;;;;;7.20;2.90;;;9.60;99.90;;;;;;5055900;28;20185;-81
2022/12/23 06:52:48;;;;;;;10.67;3.57;;;9.60;99.90;;;;;;5055479;28;20181;-81
2022/12/23 06:55:14;;;;;;;8.47;1.97;;;9.50;99.90;;;;;;5056079;28;20185;-81
2022/12/23 06:57:40;;;;;;;6.37;2.60;;;9.50;99.90;;;;;;5056274;28;20188;-81
2022/12/23 07:00:07;;;;;;;3.80;2.50;;;9.50;99.90;;;;;;5055823;28;20256;-82
2022/12/23 07:02:32;;;;;;;4.25;2.30;;;9.50;99.90;;;;;;5054723;28;20231;-82
2022/12/23 07:04:58;;;;;;;7.60;2.60;;;9.50;99.90;;;;;;5056208;28;20186;-82
2022/12/23 07:07:24;;;;;;;10.87;2.70;;;9.50;99.90;;;;;;5054555;28;20276;-81
2022/12/23 07:09:49;;;;;;;10.90;2.97;;;9.60;99.90;;;;;;5037257;28;20283;-81
2022/12/23 07:12:15;;;;;;;9.20;2.60;;;9.60;99.90;;;;;;5055427;28;20177;-81
2022/12/23 07:14:40;;;;;;;3.53;2.37;;;9.60;99.90;;;;;;5054810;28;20188;-81
2022/12/23 07:17:06;;;;;;;4.00;2.50;;;9.60;99.90;;;;;;5054289;28;20231;-82
2022/12/23 07:19:32;;;;;;;6.40;2.40;;;9.60;99.90;;;;;;5054554;28;20207;-82
2022/12/23 07:21:58;;;;;;;5.95;3.10;;;9.60;99.90;;;;;;5054032;28;20672;-82
2022/12/23 07:24:24;;;;;;;6.30;3.10;;;9.60;99.90;;;;;;5055324;28;20173;-82
2022/12/23 07:26:51;;;;;;;4.13;2.93;;;9.60;99.90;;;;;;5055419;28;20256;-81
2022/12/23 07:29:16;;;;;;;5.25;2.90;;;9.60;99.90;;;;;;5055212;28;20566;-82
2022/12/23 07:31:42;;;;;;;5.60;3.07;;;9.60;99.90;;;;;;5055455;28;20182;-82
2022/12/23 07:34:08;;;;;;;8.07;3.27;;;9.60;99.90;;;;;;5053965;28;20260;-82
2022/12/23 07:36:34;;;;;;;5.13;3.40;;;9.60;99.90;;;;;;5054181;28;20227;-82
2022/12/23 07:38:59;;;;;;;6.83;3.07;;;9.60;99.90;;;;;;5054078;28;20434;-82
2022/12/23 07:41:25;;;;;;;4.00;3.10;;;9.60;99.90;;;;;;5054114;28;20187;-81
2022/12/23 07:43:50;;;;;;;5.27;3.20;;;9.60;99.90;;;;;;5053648;28;20602;-82
2022/12/23 07:46:16;;;;;;;5.73;2.83;;;9.60;99.90;;;;;;5054580;28;20173;-82
2022/12/23 07:48:42;;;;;;;8.63;3.90;;;9.50;99.90;;;;;;5053926;28;20271;-82
2022/12/23 07:51:08;;;;;;;3.57;3.20;;;9.50;99.90;;;;;;5036711;28;20272;-82
2022/12/23 07:53:33;;;;;;;3.90;3.30;;;9.50;99.90;;;;;;5055314;28;20166;-84
2022/12/23 07:55:59;;;;;;;7.37;3.50;;;9.50;99.90;;;;;;5053588;28;20523;-82
2022/12/23 07:58:24;;;;;;;3.90;3.40;;;9.50;99.90;;;;;;5053713;28;20215;-82
2022/12/23 08:00:57;;;;;;;9.17;4.03;;;9.50;99.90;;;;;;5053814;28;20638;-81
2022/12/23 08:03:22;;;;;;;4.88;3.60;;;9.50;99.90;;;;;;5055094;28;20192;-81
2022/12/23 08:05:58;;;;;;;7.00;5.00;;;9.50;99.90;;;;;;5054951;28;20272;-82
2022/12/23 08:08:24;;;;;;;6.70;3.90;;;9.50;99.90;;;;;;5054059;28;20236;-82
2022/12/23 08:10:49;;;;;;;15.57;5.33;;;9.60;99.90;;;;;;5054267;28;20253;-82
2022/12/23 08:13:15;;;;;;;4.87;3.50;;;9.50;99.90;;;;;;5054723;28;20231;-81
2022/12/23 08:15:40;;;;;;;5.40;3.50;;;9.60;99.90;;;;;;5055246;28;20552;-81
2022/12/23 08:18:06;;;;;;;3.37;3.00;;;9.60;99.90;;;;;;5054383;28;20284;-82
2022/12/23 08:20:31;;;;;;;2.80;2.57;;;9.60;99.90;;;;;;5053795;28;20182;-83
2022/12/23 08:22:57;;;;;;;4.30;3.10;;;9.60;99.90;;;;;;5053732;28;20205;-82
2022/12/23 08:25:23;;;;;;;3.73;3.43;;;9.60;99.90;;;;;;5054923;28;20672;-82
2022/12/23 08:27:50;;;;;;;9.93;3.77;;;9.60;99.90;;;;;;5036731;28;20595;-84
2022/12/23 08:30:15;;;;;;;5.15;3.35;;;9.60;99.90;;;;;;5054765;28;20197;-82
2022/12/23 08:32:41;;;;;;;5.90;3.30;;;9.60;99.90;;;;;;5053611;28;20182;-82
2022/12/23 08:35:07;;;;;;;6.47;3.43;;;9.60;99.90;;;;;;5053695;28;20185;-82
2022/12/23 08:37:32;;;;;;;3.40;2.80;;;9.60;99.90;;;;;;5053788;28;20178;-82
2022/12/23 08:39:58;;;;;;;7.57;2.83;;;9.60;99.90;;;;;;5053527;28;20436;-82
2022/12/23 08:42:23;;;;;;;4.07;3.40;;;9.60;99.90;;;;;;5053374;28;20185;-82
2022/12/23 08:44:49;;;;;;;3.50;3.20;;;9.60;99.90;;;;;;5053633;28;20196;-82
2022/12/23 08:47:15;;;;;;;4.03;3.47;;;9.60;99.90;;;;;;5054325;28;20257;-82
2022/12/23 08:49:40;;;;;;;7.30;4.87;;;9.60;99.90;;;;;;5037062;28;20217;-82
2022/12/23 08:52:06;;;;;;;2.93;2.20;;;9.60;99.90;;;;;;5053508;28;20181;-82
2022/12/23 08:54:31;;;;;;;5.03;3.00;;;9.50;99.90;;;;;;5053590;28;20199;-82
2022/12/23 08:56:57;;;;;;;3.50;3.00;;;9.50;99.90;;;;;;5058490;28;20680;-81
2022/12/23 08:59:23;;;;;;;4.47;3.20;;;9.50;99.90;;;;;;5055988;28;20185;-81
2022/12/23 09:01:48;;;;;;;2.97;2.67;;;9.60;99.90;;;;;;5055566;28;20188;-81
2022/12/23 09:04:14;;;;;;;6.40;3.10;;;9.60;99.90;;;;;;5055809;28;20264;-81
2022/12/23 09:06:41;;;;;;;4.83;2.77;;;9.60;99.90;;;;;;5055798;28;20201;-77
2022/12/23 09:09:09;;;;;;;5.47;2.33;;;9.60;99.90;;;;;;5057382;28;20271;-77
2022/12/23 09:11:35;;;;;;;5.25;2.60;;;9.60;99.90;;;;;;5058994;28;20205;-77
2022/12/23 09:14:01;;;;;;;5.17;2.00;;;9.60;99.90;;;;;;5058766;28;20204;-77
2022/12/23 09:16:28;;;;;;;6.82;1.98;;;9.60;99.90;;;;;;5040390;28;20531;-77
2022/12/23 09:18:53;;;;;;;5.88;2.63;;;9.60;99.90;;;;;;5058739;28;20239;-77
2022/12/23 09:21:21;;;;;;;3.90;2.20;;;9.60;99.90;;;;;;5023719;28;20185;-78
2022/12/23 09:23:47;;;;;;;6.13;3.38;;;9.50;99.90;;;;;;5058571;28;20177;-78
2022/12/23 09:26:25;;;;;;;4.57;2.65;;;9.60;99.90;;;;;;5058396;28;20237;-78
2022/12/23 09:28:51;;;;;;;6.75;2.67;;;9.70;99.90;;;;;;5058895;28;20212;-78
2022/12/23 09:31:17;;;;;;;4.60;2.60;;;9.70;99.90;;;;;;5056598;28;20189;-78
2022/12/23 09:33:47;;;;;;;3.30;2.30;;;9.60;99.90;;;;;;5057031;28;20258;-78
2022/12/23 09:36:12;;;;;;;8.23;2.90;;;9.60;99.90;;;;;;5057598;28;20404;-80
2022/12/23 09:38:38;;;;;;;7.17;3.60;;;9.70;99.90;;;;;;5056611;28;20562;-79
2022/12/23 09:41:21;;;;;;;6.60;3.57;;;9.70;99.90;;;;;;5057146;28;20192;-81
2022/12/23 09:44:02;;;;;;;6.20;5.50;;;9.60;99.90;;;;;;5056927;28;20264;-80
2022/12/23 09:46:30;;;;;;;8.07;4.53;;;9.70;99.90;;;;;;5056326;28;20584;-79
2022/12/23 09:49:02;;;;;;;4.95;2.70;;;9.60;99.90;;;;;;5057699;28;20224;-80
2022/12/23 09:51:29;;;;;;;4.22;2.53;;;9.70;99.90;;;;;;5057231;28;20177;-80
2022/12/23 09:54:15;;;;;;;3.50;2.42;;;9.70;99.90;;;;;;5053232;28;20177;-81
2022/12/23 09:56:41;;;;;;;9.20;3.20;;;9.70;99.90;;;;;;5054061;28;20177;-80
2022/12/23 09:59:43;;;;;;;14.13;7.97;;;9.70;99.90;;;;;;5056375;28;20185;-80
2022/12/23 10:02:17;;;;;;;23.30;14.25;;;9.80;99.90;;;;;;5056906;28;20185;-80
2022/12/23 10:05:02;;;;;;;6.78;4.45;;;9.80;99.90;;;;;;5056239;28;20183;-80
2022/12/23 10:07:56;;;;;;;5.65;3.30;;;9.80;99.90;;;;;;5055116;28;20181;-80
2022/12/23 10:10:41;;;;;;;4.45;2.95;;;9.80;99.90;;;;;;5048826;28;20193;-80
2022/12/23 10:13:21;;;;;;;6.38;3.53;;;9.80;99.90;;;;;;5055859;28;20540;-80
2022/12/23 10:15:49;;;;;;;4.30;3.33;;;9.80;99.90;;;;;;5056853;28;20173;-81
2022/12/23 10:18:23;;;;;;;4.55;3.38;;;9.80;99.90;;;;;;5039675;28;20619;-80
2022/12/23 10:21:33;;;;;;;6.22;3.13;;;9.80;99.90;;;;;;5057014;28;20177;-80
2022/12/23 10:24:04;;;;;;;4.15;3.00;;;9.80;99.90;;;;;;5053980;28;20196;-80
2022/12/23 10:26:58;;;;;;;4.57;2.70;;;9.80;99.90;;;;;;5056564;28;20162;-80
2022/12/23 10:29:29;;;;;;;5.18;2.42;;;9.80;99.90;;;;;;5055558;28;20253;-80
2022/12/23 10:32:19;;;;;;;3.13;2.83;;;9.80;99.90;;;;;;5057148;28;20202;-80
2022/12/23 10:34:57;;;;;;;4.22;3.05;;;9.80;99.90;;;;;;5056836;28;20622;-80
2022/12/23 10:37:33;;;;;;;3.00;2.30;;;9.80;99.90;;;;;;5055339;28;20589;-80
2022/12/23 10:40:09;;;;;;;5.45;2.33;;;9.80;99.90;;;;;;5056384;28;20176;-80
2022/12/23 10:42:57;;;;;;;3.17;2.35;;;9.80;99.90;;;;;;5055305;28;20181;-80
2022/12/23 10:45:50;;;;;;;6.57;2.58;;;9.80;99.90;;;;;;5055097;28;20219;-80
2022/12/23 10:48:47;;;;;;;9.20;2.45;;;9.80;99.90;;;;;;5056373;28;20209;-80
2022/12/23 10:51:22;;;;;;;6.88;2.13;;;9.80;99.90;;;;;;5056886;28;20252;-80
2022/12/23 10:53:52;;;;;;;7.45;2.58;;;9.80;99.90;;;;;;5055831;28;20180;-80
2022/12/23 10:56:19;;;;;;;6.13;2.25;;;9.90;99.90;;;;;;5056221;28;20174;-80
2022/12/23 10:58:49;;;;;;;9.02;2.80;;;9.90;99.90;;;;;;5056327;28;20185;-80
2022/12/23 11:01:16;;;;;;;5.38;2.50;;;9.90;99.90;;;;;;5056392;28;20161;-84
2022/12/23 11:03:51;;;;;;;4.10;2.10;;;9.90;99.90;;;;;;5057005;28;20541;-80
2022/12/23 11:06:17;;;;;;;4.80;2.35;;;9.90;99.90;;;;;;5056139;28;20169;-80
2022/12/23 11:08:44;;;;;;;3.45;2.20;;;9.90;99.90;;;;;;5055019;28;20600;-79
2022/12/23 11:11:09;;;;;;;4.00;2.35;;;9.90;99.90;;;;;;5056195;28;20193;-79
2022/12/23 11:13:44;;;;;;;3.80;2.50;;;9.90;99.90;;;;;;5055226;28;20650;-80
2022/12/23 11:16:10;;;;;;;5.40;2.80;;;10.00;99.90;;;;;;5056301;28;20176;-79
2022/12/23 11:18:36;;;;;;;5.07;2.00;;;9.90;99.90;;;;;;5055538;28;20657;-78
2022/12/23 11:21:04;;;;;;;2.93;2.07;;;9.90;99.90;;;;;;5056227;28;20190;-79
2022/12/23 11:23:34;;;;;;;2.92;2.10;;;9.80;99.90;;;;;;5056103;28;20240;-79
2022/12/23 11:26:03;;;;;;;3.42;2.42;;;9.80;99.90;;;;;;5056796;28;20179;-78
2022/12/23 11:28:30;;;;;;;4.88;1.88;;;9.70;99.90;;;;;;5056288;28;20314;-77
2022/12/23 11:31:07;;;;;;;2.30;1.90;;;9.70;99.90;;;;;;5056227;28;20291;-76
2022/12/23 11:33:40;;;;;;;2.50;1.92;;;9.70;99.90;;;;;;5056589;28;20516;-77
2022/12/23 11:36:12;;;;;;;4.60;1.88;;;9.60;99.90;;;;;;5055020;28;20566;-76
2022/12/23 11:38:47;;;;;;;2.90;1.58;;;9.60;99.90;;;;;;5054944;28;20224;-77
2022/12/23 11:41:19;;;;;;;4.63;2.25;;;9.50;99.90;;;;;;5054315;28;20259;-77
2022/12/23 11:43:55;;;;;;;3.97;1.70;;;9.50;99.90;;;;;;5056192;28;20166;-77
2022/12/23 11:46:29;;;;;;;4.00;2.20;;;9.50;99.90;;;;;;5054765;28;20182;-77
2022/12/23 11:49:26;;;;;;;5.47;2.58;;;9.50;99.90;;;;;;5055947;28;20204;-78
2022/12/23 11:52:04;;;;;;;6.00;2.53;;;9.50;99.90;;;;;;5056060;28;20170;-77
2022/12/23 11:54:32;;;;;;;5.00;2.40;;;9.50;99.90;;;;;;5055318;28;20160;-78
2022/12/23 11:57:00;;;;;;;6.95;2.60;;;9.50;99.90;;;;;;5055690;28;20182;-79
2022/12/23 11:59:28;;;;;;;3.03;2.30;;;9.50;99.90;;;;;;5055676;28;20173;-78
2022/12/23 12:02:00;;;;;;;4.68;2.63;;;9.50;99.90;;;;;;5054511;28;20193;-78
2022/12/23 12:04:31;;;;;;;3.15;1.75;;;9.50;99.90;;;;;;5055450;28;20165;-78
2022/12/23 12:06:57;;;;;;;4.78;2.58;;;9.50;99.90;;;;;;5054478;28;20177;-78
2022/12/23 12:09:23;;;;;;;6.70;2.10;;;9.50;99.90;;;;;;5055033;28;20229;-78
2022/12/23 12:12:02;;;;;;;2.67;1.60;;;9.50;99.90;;;;;;5054321;28;20698;-78
2022/12/23 12:14:35;;;;;;;3.28;2.35;;;9.50;99.90;;;;;;5041982;28;20188;-78
2022/12/23 12:17:19;;;;;;;3.70;2.20;;;9.40;99.90;;;;;;5055578;28;20169;-79
2022/12/23 12:20:10;;;;;;;4.80;2.50;;;9.40;99.90;;;;;;5055810;28;20190;-79
2022/12/23 12:22:54;;;;;;;3.85;1.80;;;9.40;99.90;;;;;;5055824;28;20165;-79
2022/12/23 12:25:35;;;;;;;3.40;1.63;;;9.40;99.90;;;;;;5055128;28;20170;-83
2022/12/23 12:28:03;;;;;;;2.40;1.70;;;9.30;99.90;;;;;;5054341;28;20193;-79
2022/12/23 12:30:45;;;;;;;4.57;2.05;;;9.30;99.90;;;;;;5056772;28;20208;-80
2022/12/23 12:33:22;;;;;;;2.00;1.48;;;9.30;99.90;;;;;;5059483;28;20183;-83
2022/12/23 12:35:55;;;;;;;1.40;1.20;;;9.40;99.90;;;;;;5039485;28;20585;-82
2022/12/23 12:38:33;;;;;;;3.03;1.63;;;9.40;99.90;;;;;;5039020;28;20186;-89
2022/12/23 12:41:13;;;;;;;3.17;1.65;;;9.30;99.90;;;;;;5039251;28;20163;-82
2022/12/23 12:43:49;;;;;;;2.30;1.90;;;9.30;99.90;;;;;;5037797;28;20212;-82
2022/12/23 12:46:36;;;;;;;3.88;2.30;;;9.30;99.90;;;;;;5038850;28;20626;-84
2022/12/23 12:49:21;;;;;;;5.80;2.03;;;9.40;99.90;;;;;;5038148;28;20592;-82
2022/12/23 12:52:11;;;;;;;5.65;2.55;;;9.40;99.90;;;;;;5037383;28;20514;-84
2022/12/23 12:54:52;;;;;;;2.10;1.60;;;9.50;99.90;;;;;;5038412;28;20193;-83
2022/12/23 12:57:20;;;;;;;2.88;1.52;;;9.50;99.90;;;;;;5038680;28;20170;-83
2022/12/23 12:59:55;;;;;;;3.45;1.90;;;9.50;99.90;;;;;;5039374;28;20186;-83
2022/12/23 13:02:36;;;;;;;2.00;1.60;;;9.50;99.90;;;;;;5038617;28;20166;-83
2022/12/23 13:05:31;;;;;;;10.45;1.95;;;9.50;99.90;;;;;;5038373;28;20171;-84
2022/12/23 13:08:20;;;;;;;2.78;1.45;;;9.40;99.90;;;;;;5038059;28;20258;-84
2022/12/23 13:11:01;;;;;;;2.45;1.30;;;9.40;99.90;;;;;;5036538;28;20276;-84
2022/12/23 13:13:45;;;;;;;4.85;2.03;;;9.40;99.90;;;;;;5037331;28;20162;-85
2022/12/23 13:16:33;;;;;;;3.88;1.45;;;9.40;99.90;;;;;;5038105;28;20176;-85
2022/12/23 13:19:17;;;;;;;3.25;2.30;;;9.40;99.90;;;;;;5036368;28;20269;-85
2022/12/23 13:21:45;;;;;;;5.22;1.90;;;9.40;99.90;;;;;;5037585;28;20820;-85
2022/12/23 13:24:32;;;;;;;5.85;1.95;;;9.40;99.90;;;;;;5036659;28;20649;-84
2022/12/23 13:27:13;;;;;;;7.70;1.60;;;9.40;99.90;;;;;;5037708;28;20527;-82
2022/12/23 13:29:55;;;;;;;3.65;1.73;;;9.50;99.90;;;;;;5036480;28;20206;-85
2022/12/23 13:32:49;;;;;;;1.80;1.70;;;9.50;99.90;;;;;;5037967;28;20253;-84
2022/12/23 13:35:21;;;;;;;4.10;1.58;;;9.50;99.90;;;;;;5032142;28;20212;-85
2022/12/23 13:38:04;;;;;;;2.25;1.70;;;9.50;99.90;;;;;;5036885;28;20182;-84
2022/12/23 13:40:48;;;;;;;3.90;1.90;;;9.50;99.90;;;;;;5035637;28;20174;-84
2022/12/23 13:43:19;;;;;;;2.85;2.42;;;9.50;99.90;;;;;;5035566;28;20606;-84